Time;durP1;ratioP1;P1;durP2;ratioP2;P2;SDS_P1;SDS_P2;PMS_P1;PMS_P2;Temp;Humidity;BMP_temperature;BMP_pressure;BME280_temperature;BME280_humidity;BME280_pressure;Samples;Min_cycle;Max_cycle;Signal;HPM_P1;HPM_P2
2024/01/12 00:00:41;;;;;;;22.10;13.70;;;1.20;99.90;;;;;;5054390;28;20289;-60
2024/01/12 00:03:07;;;;;;;19.33;12.43;;;1.20;99.90;;;;;;5049024;28;20163;-60
2024/01/12 00:05:32;;;;;;;20.20;12.00;;;1.20;99.90;;;;;;5054561;28;20182;-60
2024/01/12 00:07:58;;;;;;;19.10;12.50;;;1.10;99.90;;;;;;5051420;28;20250;-60
2024/01/12 00:10:23;;;;;;;20.50;11.50;;;1.10;99.90;;;;;;5054244;28;20542;-59
2024/01/12 00:12:49;;;;;;;22.20;12.50;;;1.10;99.90;;;;;;5055886;28;20171;-60
2024/01/12 00:15:15;;;;;;;24.93;14.00;;;1.10;99.90;;;;;;5051334;28;20233;-60
2024/01/12 00:17:40;;;;;;;20.40;13.07;;;1.10;99.90;;;;;;5046249;28;20175;-60
2024/01/12 00:20:07;;;;;;;16.40;11.47;;;1.10;99.90;;;;;;5051572;28;20325;-59
2024/01/12 00:22:32;;;;;;;19.13;13.83;;;1.10;99.90;;;;;;5051016;28;20179;-60
2024/01/12 00:24:58;;;;;;;21.40;12.50;;;1.10;99.90;;;;;;5050797;28;20920;-60
2024/01/12 00:27:23;;;;;;;24.90;11.80;;;1.10;99.90;;;;;;5059271;28;20299;-60
2024/01/12 00:29:49;;;;;;;21.63;12.63;;;1.10;99.90;;;;;;5030031;28;20238;-61
2024/01/12 00:32:14;;;;;;;24.30;12.50;;;1.10;99.90;;;;;;5043331;28;20225;-60
2024/01/12 00:34:40;;;;;;;25.17;13.00;;;1.20;99.90;;;;;;5046373;28;20203;-61
2024/01/12 00:37:06;;;;;;;21.77;10.93;;;1.20;99.90;;;;;;5048843;28;20657;-60
2024/01/12 00:39:32;;;;;;;21.70;12.67;;;1.10;99.90;;;;;;5030060;28;20696;-60
2024/01/12 00:41:58;;;;;;;21.87;13.00;;;1.10;99.90;;;;;;5048988;28;20168;-60
2024/01/12 00:44:24;;;;;;;19.77;11.63;;;1.10;99.90;;;;;;5050614;28;20460;-60
2024/01/12 00:46:51;;;;;;;21.67;12.40;;;1.10;99.90;;;;;;5048407;28;20167;-60
2024/01/12 00:49:20;;;;;;;22.70;12.87;;;1.10;99.90;;;;;;5033151;28;20832;-61
2024/01/12 00:51:46;;;;;;;20.10;12.13;;;1.20;99.90;;;;;;5053914;28;20521;-61
2024/01/12 00:54:11;;;;;;;20.90;13.23;;;1.20;99.90;;;;;;5049019;28;20523;-60
2024/01/12 00:56:37;;;;;;;23.03;13.33;;;1.20;99.90;;;;;;5047558;28;20209;-60
2024/01/12 00:59:04;;;;;;;19.47;12.83;;;1.20;99.90;;;;;;5045337;28;20175;-60
2024/01/12 01:01:30;;;;;;;17.60;12.50;;;1.20;99.90;;;;;;5048155;28;20422;-60
2024/01/12 01:03:55;;;;;;;21.47;12.10;;;1.20;99.90;;;;;;5044360;28;23581;-60
2024/01/12 01:06:21;;;;;;;23.93;13.00;;;1.30;99.90;;;;;;5030531;28;20191;-61
2024/01/12 01:08:48;;;;;;;24.13;12.10;;;1.30;99.90;;;;;;5040983;28;20206;-60
2024/01/12 01:11:16;;;;;;;26.50;12.57;;;1.30;99.90;;;;;;5044841;28;20183;-61
2024/01/12 01:13:42;;;;;;;20.70;11.97;;;1.20;99.90;;;;;;5049338;28;20429;-62
2024/01/12 01:16:07;;;;;;;26.47;12.73;;;1.40;99.90;;;;;;5048768;28;20437;-60
2024/01/12 01:18:33;;;;;;;19.17;12.27;;;1.30;99.90;;;;;;5031537;28;20175;-60
2024/01/12 01:20:59;;;;;;;21.37;11.07;;;1.20;99.90;;;;;;5049473;28;20194;-60
2024/01/12 01:23:25;;;;;;;26.33;13.07;;;1.30;99.90;;;;;;5044290;28;20520;-60
2024/01/12 01:25:51;;;;;;;26.07;13.93;;;1.20;99.90;;;;;;5050589;28;20457;-59
2024/01/12 01:28:17;;;;;;;25.97;12.93;;;1.30;99.90;;;;;;5043671;28;20182;-60
2024/01/12 01:30:42;;;;;;;21.37;12.50;;;1.30;99.90;;;;;;5050031;28;20810;-61
2024/01/12 01:33:08;;;;;;;26.30;14.30;;;1.40;99.90;;;;;;5045251;28;20171;-61
2024/01/12 01:35:34;;;;;;;24.20;13.97;;;1.40;99.90;;;;;;5042667;28;20240;-60
2024/01/12 01:37:59;;;;;;;21.20;12.47;;;1.30;99.90;;;;;;5050139;28;20241;-60
2024/01/12 01:40:25;;;;;;;23.90;13.80;;;1.20;99.90;;;;;;5048052;28;20210;-60
2024/01/12 01:42:51;;;;;;;21.37;13.47;;;1.20;99.90;;;;;;5049325;28;20191;-60
2024/01/12 01:45:16;;;;;;;21.30;11.97;;;1.20;99.90;;;;;;5042915;28;20234;-60
2024/01/12 01:47:43;;;;;;;18.70;11.10;;;1.30;99.90;;;;;;5052723;28;20256;-60
2024/01/12 01:50:10;;;;;;;22.30;11.83;;;1.30;99.90;;;;;;5050616;28;20220;-60
2024/01/12 01:52:37;;;;;;;23.97;14.20;;;1.30;99.90;;;;;;5047991;28;20444;-60
2024/01/12 01:55:03;;;;;;;19.60;12.77;;;1.30;99.90;;;;;;5053246;28;20543;-60
2024/01/12 01:57:30;;;;;;;30.33;13.70;;;1.30;99.90;;;;;;5045712;28;20533;-60
2024/01/12 01:59:56;;;;;;;21.10;11.27;;;1.30;99.90;;;;;;5046849;28;20457;-61
2024/01/12 02:02:23;;;;;;;22.53;13.30;;;1.30;99.90;;;;;;5048767;28;20932;-60
2024/01/12 02:04:51;;;;;;;21.27;12.10;;;1.30;99.90;;;;;;5054390;28;20187;-60
2024/01/12 02:07:17;;;;;;;20.47;11.57;;;1.20;99.90;;;;;;5048775;28;20432;-60
2024/01/12 02:09:43;;;;;;;18.03;11.70;;;1.20;99.90;;;;;;5048456;28;20916;-61
2024/01/12 02:12:09;;;;;;;19.40;10.57;;;1.20;99.90;;;;;;5047318;28;20191;-60
2024/01/12 02:14:35;;;;;;;20.03;12.13;;;1.20;99.90;;;;;;5052803;28;20478;-61
2024/01/12 02:17:00;;;;;;;18.67;12.43;;;1.30;99.90;;;;;;5051252;28;20205;-61
2024/01/12 02:19:26;;;;;;;25.33;12.30;;;1.20;99.90;;;;;;5045431;28;20692;-61
2024/01/12 02:21:51;;;;;;;25.77;12.47;;;1.30;99.90;;;;;;5039124;28;22030;-61
2024/01/12 02:24:17;;;;;;;19.63;11.80;;;1.30;99.90;;;;;;5050344;28;20191;-61
2024/01/12 02:26:43;;;;;;;20.73;11.43;;;1.30;99.90;;;;;;5034563;28;20175;-61
2024/01/12 02:29:08;;;;;;;21.13;12.67;;;1.20;99.90;;;;;;5045949;28;20558;-61
2024/01/12 02:31:34;;;;;;;22.43;12.50;;;1.20;99.90;;;;;;5031567;28;20175;-59
2024/01/12 02:34:00;;;;;;;21.53;11.93;;;1.20;99.90;;;;;;5051667;28;20669;-60
2024/01/12 02:36:26;;;;;;;19.83;11.70;;;1.20;99.90;;;;;;5050275;28;20508;-60
2024/01/12 02:38:54;;;;;;;19.00;11.63;;;1.20;99.90;;;;;;5046241;28;20567;-60
2024/01/12 02:41:22;;;;;;;22.13;13.17;;;1.20;99.90;;;;;;5042077;28;20461;-61
2024/01/12 02:43:48;;;;;;;21.10;11.80;;;1.20;99.90;;;;;;5046167;28;20434;-60
2024/01/12 02:46:14;;;;;;;22.97;11.40;;;1.30;99.90;;;;;;5046613;28;20464;-60
2024/01/12 02:48:40;;;;;;;20.27;12.13;;;1.30;99.90;;;;;;5049816;28;20176;-61
2024/01/12 02:51:06;;;;;;;27.40;12.63;;;1.30;99.90;;;;;;5051153;28;20197;-60
2024/01/12 02:53:32;;;;;;;21.97;11.47;;;1.20;99.90;;;;;;5051183;28;20210;-60
2024/01/12 02:55:58;;;;;;;18.03;10.67;;;1.30;99.90;;;;;;5052982;28;20488;-60
2024/01/12 02:58:23;;;;;;;22.30;11.07;;;1.20;99.90;;;;;;5051649;28;20182;-61
2024/01/12 03:00:49;;;;;;;20.47;10.43;;;1.40;99.90;;;;;;5054715;28;20959;-61
2024/01/12 03:03:15;;;;;;;24.60;12.80;;;1.40;99.90;;;;;;5057700;28;20189;-61
2024/01/12 03:05:40;;;;;;;23.73;11.60;;;1.30;99.90;;;;;;5054420;28;20252;-61
2024/01/12 03:08:06;;;;;;;19.33;11.77;;;1.30;99.90;;;;;;5045352;28;20250;-61
2024/01/12 03:10:32;;;;;;;17.50;11.43;;;1.30;99.90;;;;;;5048221;28;20175;-61
2024/01/12 03:12:57;;;;;;;17.30;10.27;;;1.30;99.90;;;;;;5047519;28;20448;-61
2024/01/12 03:15:23;;;;;;;20.90;10.60;;;1.30;99.90;;;;;;5055573;28;20704;-61
2024/01/12 03:17:48;;;;;;;15.13;11.10;;;1.30;99.90;;;;;;5047528;28;20175;-61
2024/01/12 03:20:14;;;;;;;21.37;10.93;;;1.30;99.90;;;;;;5049656;28;20664;-61
2024/01/12 03:22:40;;;;;;;17.23;11.10;;;1.20;99.90;;;;;;5046348;28;20194;-63
2024/01/12 03:25:05;;;;;;;17.73;11.40;;;1.20;99.90;;;;;;5045126;28;20205;-61
2024/01/12 03:27:33;;;;;;;21.43;11.37;;;1.10;99.90;;;;;;5049733;28;20205;-61
2024/01/12 03:29:58;;;;;;;21.97;11.93;;;1.20;99.90;;;;;;5045848;28;20171;-61
2024/01/12 03:32:24;;;;;;;25.17;11.43;;;1.20;99.90;;;;;;5052447;28;20444;-61
2024/01/12 03:34:50;;;;;;;19.90;11.70;;;1.20;99.90;;;;;;5045798;28;20278;-61
2024/01/12 03:37:15;;;;;;;21.07;10.97;;;1.20;99.90;;;;;;5050820;28;20194;-61
2024/01/12 03:39:41;;;;;;;17.27;10.90;;;1.20;99.90;;;;;;5049173;28;20203;-61
2024/01/12 03:42:08;;;;;;;20.47;11.20;;;1.00;99.90;;;;;;5038837;28;20193;-61
2024/01/12 03:44:33;;;;;;;16.37;9.93;;;1.10;99.90;;;;;;5051579;28;20709;-60
2024/01/12 03:46:59;;;;;;;19.83;10.23;;;1.00;99.90;;;;;;5030862;28;20421;-61
2024/01/12 03:49:25;;;;;;;21.70;13.47;;;1.10;99.90;;;;;;5051684;28;20186;-61
2024/01/12 03:51:57;;;;;;;24.50;11.90;;;1.00;99.90;;;;;;5051189;28;20190;-61
2024/01/12 03:54:24;;;;;;;19.83;10.87;;;1.10;99.90;;;;;;5044364;28;20696;-61
2024/01/12 03:56:50;;;;;;;18.80;12.37;;;1.10;99.90;;;;;;5051725;28;20409;-61
2024/01/12 03:59:16;;;;;;;18.20;10.60;;;1.10;99.90;;;;;;5051534;28;20818;-61
2024/01/12 04:01:42;;;;;;;22.93;12.40;;;1.10;99.90;;;;;;5050693;28;20437;-61
2024/01/12 04:04:08;;;;;;;17.23;10.40;;;1.10;99.90;;;;;;5047965;28;20178;-61
2024/01/12 04:06:33;;;;;;;19.30;12.07;;;1.10;99.90;;;;;;5051832;28;20418;-62
2024/01/12 04:08:59;;;;;;;22.70;13.13;;;1.10;99.90;;;;;;5056029;28;20242;-60
2024/01/12 04:11:26;;;;;;;19.30;11.30;;;1.20;99.90;;;;;;5057737;28;20182;-60
2024/01/12 04:13:51;;;;;;;24.37;11.20;;;1.10;99.90;;;;;;5050550;28;20171;-60
2024/01/12 04:16:18;;;;;;;20.10;9.30;;;1.00;99.90;;;;;;5048412;28;20501;-60
2024/01/12 04:18:43;;;;;;;20.07;11.47;;;1.00;99.90;;;;;;5049372;28;20637;-59
2024/01/12 04:21:09;;;;;;;23.87;10.73;;;1.00;99.90;;;;;;5051548;28;20485;-60
2024/01/12 04:23:35;;;;;;;18.80;10.47;;;1.00;99.90;;;;;;5049237;28;20232;-60
2024/01/12 04:26:00;;;;;;;21.57;10.33;;;1.00;99.90;;;;;;5027788;28;20191;-60
2024/01/12 04:28:26;;;;;;;15.67;9.70;;;1.00;99.90;;;;;;5047872;28;20289;-60
2024/01/12 04:30:52;;;;;;;23.07;11.93;;;1.00;99.90;;;;;;5048768;28;20177;-62
2024/01/12 04:33:17;;;;;;;16.13;9.80;;;0.90;99.90;;;;;;5041786;28;20195;-60
2024/01/12 04:35:43;;;;;;;16.33;10.23;;;0.90;99.90;;;;;;5046421;28;20623;-60
2024/01/12 04:38:10;;;;;;;17.90;10.37;;;0.90;99.90;;;;;;5045843;28;20179;-62
2024/01/12 04:40:36;;;;;;;15.10;9.43;;;1.00;99.90;;;;;;5048324;28;20224;-60
2024/01/12 04:43:03;;;;;;;15.47;9.60;;;0.90;99.90;;;;;;5046876;28;20406;-60
2024/01/12 04:45:28;;;;;;;17.00;10.47;;;1.00;99.90;;;;;;5029968;28;20195;-60
2024/01/12 04:47:54;;;;;;;20.83;10.27;;;0.90;99.90;;;;;;5045744;28;20429;-60
2024/01/12 04:50:20;;;;;;;12.83;7.77;;;0.90;99.90;;;;;;5041058;28;20614;-60
2024/01/12 04:52:45;;;;;;;14.20;8.80;;;1.00;99.90;;;;;;5051873;28;20203;-60
2024/01/12 04:55:11;;;;;;;12.93;9.60;;;0.80;99.90;;;;;;5049423;28;20453;-60
2024/01/12 04:57:36;;;;;;;14.20;9.23;;;0.80;99.90;;;;;;5037708;28;20170;-60
2024/01/12 05:00:03;;;;;;;14.93;9.17;;;0.80;99.90;;;;;;5050243;28;20245;-60
2024/01/12 05:02:28;;;;;;;15.87;10.33;;;0.90;99.90;;;;;;5047044;28;20249;-59
2024/01/12 05:04:54;;;;;;;16.90;8.77;;;0.90;99.90;;;;;;5049263;28;20525;-62
2024/01/12 05:07:19;;;;;;;16.57;9.60;;;0.90;99.90;;;;;;5043255;28;20547;-60
2024/01/12 05:09:45;;;;;;;20.90;9.37;;;0.90;99.90;;;;;;5049508;28;20616;-60
2024/01/12 05:12:10;;;;;;;17.00;9.47;;;0.90;99.90;;;;;;5045796;28;20241;-60
2024/01/12 05:14:36;;;;;;;15.10;7.97;;;0.90;99.90;;;;;;5039237;28;20275;-60
2024/01/12 05:17:02;;;;;;;13.53;9.07;;;0.90;99.90;;;;;;5047112;28;20244;-59
2024/01/12 05:19:27;;;;;;;17.97;10.17;;;0.90;99.90;;;;;;5044861;28;20671;-60
2024/01/12 05:21:53;;;;;;;16.80;9.57;;;1.00;99.90;;;;;;5054135;28;20202;-60
2024/01/12 05:24:18;;;;;;;13.20;9.03;;;1.00;99.90;;;;;;5050579;28;20273;-60
2024/01/12 05:26:44;;;;;;;16.73;8.67;;;1.10;99.90;;;;;;5053551;28;20182;-60
2024/01/12 05:29:11;;;;;;;17.43;10.13;;;1.00;99.90;;;;;;5032102;28;20642;-60
2024/01/12 05:31:37;;;;;;;15.27;8.43;;;1.00;99.90;;;;;;5050401;28;20172;-60
2024/01/12 05:34:03;;;;;;;15.17;8.77;;;1.00;99.90;;;;;;5036425;28;20426;-60
2024/01/12 05:36:28;;;;;;;22.13;9.80;;;1.10;99.90;;;;;;5049151;28;20167;-60
2024/01/12 05:38:54;;;;;;;15.60;9.30;;;1.00;99.90;;;;;;5054206;28;20650;-61
2024/01/12 05:41:20;;;;;;;15.40;7.63;;;1.00;99.90;;;;;;5036289;28;20345;-60
2024/01/12 05:43:46;;;;;;;13.07;7.90;;;1.10;99.90;;;;;;5053317;28;20637;-60
2024/01/12 05:46:11;;;;;;;15.90;10.60;;;1.10;99.90;;;;;;5048850;28;20524;-60
2024/01/12 05:48:37;;;;;;;16.53;9.60;;;1.00;99.90;;;;;;5050045;28;20519;-60
2024/01/12 05:51:02;;;;;;;13.50;9.20;;;1.00;99.90;;;;;;5055373;28;20179;-60
2024/01/12 05:53:28;;;;;;;13.17;8.83;;;0.90;99.90;;;;;;5052607;28;20190;-60
2024/01/12 05:55:54;;;;;;;16.50;9.33;;;1.00;99.90;;;;;;5053639;28;20206;-63
2024/01/12 05:58:20;;;;;;;14.20;8.87;;;1.00;99.90;;;;;;5053990;28;20195;-60
2024/01/12 06:00:47;;;;;;;17.27;10.60;;;1.00;99.90;;;;;;5049940;28;20230;-61
2024/01/12 06:03:13;;;;;;;17.80;10.17;;;0.90;99.90;;;;;;5053244;28;20409;-62
2024/01/12 06:05:39;;;;;;;16.07;9.00;;;0.80;99.90;;;;;;5049928;28;20793;-62
2024/01/12 06:08:05;;;;;;;17.47;9.80;;;0.90;99.90;;;;;;5046892;28;20187;-60
2024/01/12 06:10:31;;;;;;;16.83;10.10;;;0.80;99.90;;;;;;5050408;28;20414;-60
2024/01/12 06:12:56;;;;;;;12.97;7.60;;;0.90;99.90;;;;;;5045420;28;20182;-60
2024/01/12 06:15:22;;;;;;;21.10;11.20;;;1.60;99.90;;;;;;5061113;28;20199;-59
2024/01/12 06:17:48;;;;;;;21.73;11.77;;;1.40;99.90;;;;;;5045186;28;20221;-60
2024/01/12 06:20:14;;;;;;;21.60;11.10;;;0.80;99.90;;;;;;5052568;28;20202;-60
2024/01/12 06:22:40;;;;;;;15.87;10.10;;;0.80;99.90;;;;;;5047466;28;20414;-60
2024/01/12 06:25:06;;;;;;;18.33;10.43;;;0.80;99.90;;;;;;5045768;28;20187;-59
2024/01/12 06:27:31;;;;;;;18.97;10.30;;;0.80;99.90;;;;;;5050253;28;20292;-59
2024/01/12 06:29:57;;;;;;;21.00;11.17;;;0.80;99.90;;;;;;5045166;28;20419;-60
2024/01/12 06:32:22;;;;;;;24.30;10.70;;;0.80;99.90;;;;;;5051137;28;20177;-62
2024/01/12 06:34:48;;;;;;;22.30;11.20;;;0.80;99.90;;;;;;5044497;28;20196;-60
2024/01/12 06:37:14;;;;;;;20.33;11.47;;;0.70;99.90;;;;;;5045185;28;20175;-59
2024/01/12 06:39:39;;;;;;;22.33;11.60;;;0.50;99.90;;;;;;5053103;28;20240;-60
2024/01/12 06:42:05;;;;;;;15.30;8.97;;;0.40;99.90;;;;;;5052904;28;20205;-58
2024/01/12 06:44:30;;;;;;;19.53;10.40;;;0.50;99.90;;;;;;5049244;28;21053;-59
2024/01/12 06:46:56;;;;;;;17.53;9.10;;;0.50;99.90;;;;;;5044292;28;20178;-58
2024/01/12 06:49:22;;;;;;;15.77;9.43;;;0.60;99.90;;;;;;5052059;28;20241;-58
2024/01/12 06:51:47;;;;;;;17.40;9.07;;;0.50;99.90;;;;;;5043350;28;20662;-60
2024/01/12 06:54:13;;;;;;;19.23;10.13;;;0.50;99.90;;;;;;5052129;28;20276;-60
2024/01/12 06:56:39;;;;;;;17.80;8.07;;;0.50;99.90;;;;;;5052689;28;20179;-60
2024/01/12 06:59:05;;;;;;;16.73;8.90;;;0.40;99.90;;;;;;5049643;28;20171;-60
2024/01/12 07:01:31;;;;;;;20.07;9.70;;;0.20;99.90;;;;;;5052351;28;20571;-60
2024/01/12 07:03:57;;;;;;;15.43;9.50;;;0.20;99.90;;;;;;5050255;28;20597;-60
2024/01/12 07:06:22;;;;;;;15.40;9.03;;;0.30;99.90;;;;;;5047704;28;20504;-61
2024/01/12 07:08:48;;;;;;;17.93;9.10;;;0.40;99.90;;;;;;5043861;28;20656;-61
2024/01/12 07:11:13;;;;;;;13.10;8.17;;;0.40;99.90;;;;;;5048396;28;20553;-60
2024/01/12 07:13:39;;;;;;;12.17;7.27;;;0.20;99.90;;;;;;5047454;28;20186;-60
2024/01/12 07:16:05;;;;;;;14.03;8.00;;;0.40;99.90;;;;;;5047821;28;20204;-60
2024/01/12 07:18:31;;;;;;;15.23;9.03;;;0.40;99.90;;;;;;5046725;28;20171;-61
2024/01/12 07:21:02;;;;;;;11.27;7.10;;;0.30;99.90;;;;;;5048973;28;20485;-61
2024/01/12 07:23:30;;;;;;;10.80;7.17;;;0.30;99.90;;;;;;5049557;28;20221;-60
2024/01/12 07:25:56;;;;;;;12.77;7.17;;;0.20;99.90;;;;;;5042810;28;20438;-60
2024/01/12 07:28:22;;;;;;;12.07;7.37;;;0.30;99.90;;;;;;5048132;28;20417;-60
2024/01/12 07:30:47;;;;;;;11.77;6.90;;;0.30;99.90;;;;;;5044261;28;20471;-60
2024/01/12 07:33:13;;;;;;;14.90;8.20;;;0.40;99.90;;;;;;5031415;28;20270;-60
2024/01/12 07:35:39;;;;;;;14.13;8.27;;;0.40;99.90;;;;;;5046012;28;20264;-60
2024/01/12 07:38:04;;;;;;;12.77;8.77;;;0.50;99.90;;;;;;5049221;28;20179;-62
2024/01/12 07:40:30;;;;;;;11.97;7.73;;;0.50;99.90;;;;;;5046711;28;20278;-61
2024/01/12 07:42:55;;;;;;;14.33;8.73;;;0.40;99.90;;;;;;5043057;28;20543;-61
2024/01/12 07:45:22;;;;;;;14.70;8.83;;;0.40;99.90;;;;;;5032001;28;20187;-61
2024/01/12 07:47:47;;;;;;;11.67;8.20;;;0.40;99.90;;;;;;5050867;28;20236;-60
2024/01/12 07:50:13;;;;;;;12.07;7.53;;;0.30;99.90;;;;;;5047587;28;20488;-62
2024/01/12 07:52:38;;;;;;;13.80;7.07;;;0.30;99.90;;;;;;5045489;28;20179;-62
2024/01/12 07:55:05;;;;;;;19.77;8.30;;;0.40;99.90;;;;;;5051723;28;20214;-60
2024/01/12 07:57:30;;;;;;;14.23;7.90;;;0.30;99.90;;;;;;5050274;28;20175;-60
2024/01/12 07:59:57;;;;;;;13.13;8.23;;;0.30;99.90;;;;;;5039574;28;20468;-61
2024/01/12 08:02:23;;;;;;;16.00;8.20;;;0.30;99.90;;;;;;5045856;28;20309;-61
2024/01/12 08:04:49;;;;;;;16.67;7.27;;;0.30;99.90;;;;;;5042174;28;20924;-61
2024/01/12 08:07:15;;;;;;;13.03;8.50;;;0.30;99.90;;;;;;5049166;28;20493;-59
2024/01/12 08:09:40;;;;;;;16.23;8.77;;;0.20;99.90;;;;;;5030023;28;20214;-62
2024/01/12 08:12:06;;;;;;;12.47;6.97;;;0.30;99.90;;;;;;5045023;28;20191;-61
2024/01/12 08:14:32;;;;;;;9.77;5.97;;;0.40;99.90;;;;;;5047452;28;20190;-61
2024/01/12 08:16:57;;;;;;;9.27;6.93;;;0.20;99.90;;;;;;5046115;28;20508;-60
2024/01/12 08:19:23;;;;;;;12.27;7.27;;;0.30;99.90;;;;;;5044911;28;20656;-60
2024/01/12 08:21:49;;;;;;;10.20;7.33;;;0.40;99.90;;;;;;5050377;28;20242;-61
2024/01/12 08:24:15;;;;;;;11.77;6.10;;;0.50;99.90;;;;;;5039964;28;20264;-61
2024/01/12 08:26:40;;;;;;;9.43;6.43;;;0.50;99.90;;;;;;5049053;28;20820;-60
2024/01/12 08:29:06;;;;;;;13.03;6.27;;;0.50;99.90;;;;;;5046313;28;20447;-61
2024/01/12 08:31:32;;;;;;;11.27;6.80;;;0.40;99.90;;;;;;5041455;28;20181;-62
2024/01/12 08:33:58;;;;;;;12.20;6.83;;;0.40;99.90;;;;;;5039410;28;20186;-60
2024/01/12 08:36:24;;;;;;;12.37;7.40;;;0.50;99.90;;;;;;5048067;28;20221;-60
2024/01/12 08:38:50;;;;;;;14.67;6.63;;;0.50;99.90;;;;;;5048323;28;20441;-61
2024/01/12 08:41:16;;;;;;;15.30;8.57;;;0.70;99.90;;;;;;5038652;28;20694;-60
2024/01/12 08:43:42;;;;;;;19.50;9.27;;;0.70;99.90;;;;;;5041237;28;20440;-60
2024/01/12 08:46:08;;;;;;;19.13;9.53;;;0.80;99.90;;;;;;5034962;28;20484;-60
2024/01/12 08:48:34;;;;;;;16.73;9.43;;;0.80;99.90;;;;;;5041466;28;20649;-60
2024/01/12 08:51:00;;;;;;;17.80;11.43;;;0.80;99.90;;;;;;5058872;28;20926;-60
2024/01/12 08:53:26;;;;;;;19.93;11.60;;;0.80;99.90;;;;;;5046660;28;20413;-60
2024/01/12 08:55:52;;;;;;;17.57;10.23;;;0.80;99.90;;;;;;5050484;28;20207;-60
2024/01/12 08:58:18;;;;;;;17.93;9.50;;;0.70;99.90;;;;;;5048935;28;20170;-61
2024/01/12 09:00:43;;;;;;;18.57;10.20;;;0.80;99.90;;;;;;5041292;28;20504;-61
2024/01/12 09:03:09;;;;;;;20.73;11.77;;;0.90;99.90;;;;;;5054353;28;20516;-61
2024/01/12 09:05:34;;;;;;;16.40;9.53;;;0.90;99.90;;;;;;5049867;28;20191;-62
2024/01/12 09:08:01;;;;;;;19.07;11.07;;;0.90;99.90;;;;;;5040192;28;20557;-60
2024/01/12 09:10:27;;;;;;;18.70;10.20;;;0.90;99.90;;;;;;5042758;28;20186;-61
2024/01/12 09:12:53;;;;;;;21.70;12.80;;;0.90;99.90;;;;;;5045530;28;20854;-60
2024/01/12 09:15:18;;;;;;;22.40;13.30;;;1.00;99.90;;;;;;5046849;28;20437;-61
2024/01/12 09:17:44;;;;;;;18.10;10.50;;;0.90;99.90;;;;;;5039782;28;20183;-60
2024/01/12 09:20:10;;;;;;;17.07;11.87;;;0.90;99.90;;;;;;5046893;28;20230;-60
2024/01/12 09:22:36;;;;;;;15.67;9.93;;;0.90;99.90;;;;;;5043642;28;20329;-60
2024/01/12 09:25:02;;;;;;;19.10;10.63;;;0.90;99.90;;;;;;5046630;28;20451;-60
2024/01/12 09:27:27;;;;;;;18.10;12.10;;;0.80;99.90;;;;;;5046007;28;20167;-59
2024/01/12 09:29:53;;;;;;;22.57;11.33;;;1.00;99.90;;;;;;5043214;28;20405;-60
2024/01/12 09:32:19;;;;;;;14.67;9.73;;;1.00;99.90;;;;;;5048402;28;20257;-60
2024/01/12 09:34:45;;;;;;;19.60;11.10;;;0.90;99.90;;;;;;5044674;28;20551;-59
2024/01/12 09:37:10;;;;;;;14.47;10.70;;;0.90;99.90;;;;;;5028415;28;20424;-60
2024/01/12 09:39:36;;;;;;;14.17;9.40;;;1.10;99.90;;;;;;5044544;28;20262;-60
2024/01/12 09:42:02;;;;;;;13.53;9.83;;;1.10;99.90;;;;;;5043951;28;20635;-60
2024/01/12 09:44:29;;;;;;;14.40;9.10;;;0.90;99.90;;;;;;5046104;28;20191;-60
2024/01/12 09:46:58;;;;;;;9.50;6.70;;;1.00;99.90;;;;;;5043474;28;20203;-60
2024/01/12 09:49:28;;;;;;;12.77;6.90;;;1.10;99.90;;;;;;5042648;28;20948;-60
2024/01/12 09:51:56;;;;;;;9.77;6.97;;;1.00;99.90;;;;;;5043862;28;20446;-59
2024/01/12 09:54:21;;;;;;;9.37;6.50;;;1.00;99.90;;;;;;5048402;28;20457;-60
2024/01/12 09:56:48;;;;;;;8.40;5.37;;;0.90;99.90;;;;;;5049673;28;20401;-59
2024/01/12 09:59:16;;;;;;;8.63;5.73;;;0.90;99.90;;;;;;5044151;28;20595;-59
2024/01/12 10:01:42;;;;;;;9.70;6.03;;;1.00;99.90;;;;;;5049875;28;20828;-60
2024/01/12 10:04:08;;;;;;;13.03;7.47;;;1.20;99.90;;;;;;5045527;28;20414;-62
2024/01/12 10:06:37;;;;;;;8.37;5.77;;;1.00;99.90;;;;;;5051534;28;20515;-60
2024/01/12 10:09:04;;;;;;;10.17;6.50;;;0.80;99.90;;;;;;5049684;28;20534;-59
2024/01/12 10:11:30;;;;;;;9.43;5.73;;;0.80;99.90;;;;;;5051107;28;20405;-59
2024/01/12 10:13:55;;;;;;;9.33;5.93;;;0.90;99.90;;;;;;5049952;28;20417;-59
2024/01/12 10:16:22;;;;;;;7.73;5.50;;;1.00;99.90;;;;;;5049984;28;20465;-62
2024/01/12 10:18:48;;;;;;;8.10;5.47;;;1.00;99.90;;;;;;5048519;28;20258;-59
2024/01/12 10:21:14;;;;;;;15.30;6.37;;;1.10;99.90;;;;;;5048698;28;20464;-59
2024/01/12 10:23:43;;;;;;;8.10;5.43;;;1.00;99.90;;;;;;5052533;28;20417;-59
2024/01/12 10:26:15;;;;;;;9.60;5.47;;;1.10;99.90;;;;;;5046289;28;20273;-60
2024/01/12 10:28:41;;;;;;;13.63;5.67;;;1.00;99.90;;;;;;5049560;28;20410;-60
2024/01/12 10:31:07;;;;;;;7.90;5.60;;;0.90;99.90;;;;;;5050067;28;20433;-59
2024/01/12 10:33:33;;;;;;;12.93;7.47;;;0.90;99.90;;;;;;5052649;28;20500;-57
2024/01/12 10:36:06;;;;;;;11.37;7.00;;;1.00;99.90;;;;;;5044804;28;20187;-58
2024/01/12 10:38:36;;;;;;;15.70;7.60;;;0.90;99.90;;;;;;5046843;28;20449;-60
2024/01/12 10:41:06;;;;;;;9.53;5.70;;;0.90;99.90;;;;;;5034172;28;20449;-60
2024/01/12 10:43:36;;;;;;;11.00;6.30;;;0.80;99.90;;;;;;5049842;28;20421;-59
2024/01/12 10:46:17;;;;;;;11.33;6.33;;;0.90;99.90;;;;;;5052625;28;20437;-60
2024/01/12 10:49:02;;;;;;;10.57;6.20;;;0.90;99.90;;;;;;5053406;28;20409;-59
2024/01/12 10:51:31;;;;;;;13.20;6.40;;;1.00;99.90;;;;;;5046149;28;20413;-59
2024/01/12 10:54:05;;;;;;;14.80;6.30;;;1.10;99.90;;;;;;5051173;28;20551;-58
2024/01/12 10:56:35;;;;;;;10.93;7.43;;;1.10;99.90;;;;;;5046196;28;20919;-60
2024/01/12 10:59:04;;;;;;;13.40;6.60;;;1.20;99.90;;;;;;5047157;28;20510;-60
2024/01/12 11:01:31;;;;;;;11.63;5.87;;;1.20;99.90;;;;;;5040148;28;20449;-60
2024/01/12 11:03:57;;;;;;;9.83;5.87;;;1.10;99.90;;;;;;5031419;28;20457;-60
2024/01/12 11:06:24;;;;;;;10.60;7.77;;;1.10;99.90;;;;;;5051262;28;20459;-59
2024/01/12 11:08:50;;;;;;;9.33;6.30;;;0.90;99.90;;;;;;5051266;28;20475;-59
2024/01/12 11:11:20;;;;;;;16.50;8.60;;;0.80;99.90;;;;;;5028760;28;20430;-60
2024/01/12 11:13:47;;;;;;;15.30;7.13;;;0.80;99.90;;;;;;5052249;28;20467;-61
2024/01/12 11:16:12;;;;;;;18.40;7.43;;;0.70;99.90;;;;;;5049728;28;20983;-61
2024/01/12 11:18:38;;;;;;;12.10;7.33;;;0.80;99.90;;;;;;5046947;28;20416;-62
2024/01/12 11:21:04;;;;;;;11.20;7.50;;;0.80;99.90;;;;;;5047498;28;20199;-58
2024/01/12 11:23:39;;;;;;;12.43;7.57;;;0.70;99.90;;;;;;5049211;28;20404;-61
2024/01/12 11:26:04;;;;;;;12.50;10.03;;;0.70;99.90;;;;;;5050310;28;20425;-60
2024/01/12 11:28:39;;;;;;;14.60;7.83;;;0.80;99.90;;;;;;5049073;28;20409;-58
2024/01/12 11:31:05;;;;;;;13.20;8.47;;;0.80;99.90;;;;;;5046152;28;20175;-60
2024/01/12 11:33:43;;;;;;;14.57;8.70;;;0.80;99.90;;;;;;5047030;28;20999;-61
2024/01/12 11:36:17;;;;;;;17.23;8.37;;;0.60;99.90;;;;;;5022180;28;20626;-61
2024/01/12 11:38:44;;;;;;;11.67;8.07;;;0.50;99.90;;;;;;5050609;28;20441;-60
2024/01/12 11:41:11;;;;;;;16.30;8.67;;;0.50;99.90;;;;;;5027689;28;20527;-61
2024/01/12 11:43:37;;;;;;;14.63;8.20;;;0.50;99.90;;;;;;5052451;28;20258;-63
2024/01/12 11:46:03;;;;;;;13.60;7.70;;;0.50;99.90;;;;;;5055601;28;20529;-60
2024/01/12 11:48:30;;;;;;;14.90;8.00;;;0.60;99.90;;;;;;5046130;28;20193;-61
2024/01/12 11:50:56;;;;;;;17.20;9.73;;;0.60;99.90;;;;;;5051889;28;20417;-61
2024/01/12 11:53:22;;;;;;;16.00;9.00;;;0.50;99.90;;;;;;5029699;28;20410;-61
2024/01/12 11:55:48;;;;;;;13.30;8.70;;;0.40;99.90;;;;;;5051833;28;20219;-61
2024/01/12 11:58:14;;;;;;;14.77;9.70;;;0.60;99.90;;;;;;5050836;28;20183;-61
2024/01/12 12:00:39;;;;;;;13.60;8.87;;;0.70;99.90;;;;;;5041164;28;20466;-60
2024/01/12 12:03:05;;;;;;;12.93;8.17;;;0.50;99.90;;;;;;5046489;28;20175;-61
2024/01/12 12:05:31;;;;;;;19.90;9.50;;;0.50;99.90;;;;;;5042039;28;20574;-62
2024/01/12 12:07:57;;;;;;;15.73;9.00;;;0.50;99.90;;;;;;5050945;28;20181;-61
2024/01/12 12:10:25;;;;;;;12.87;8.80;;;0.60;99.90;;;;;;5047563;28;20883;-61
2024/01/12 12:12:50;;;;;;;16.93;9.93;;;0.70;99.90;;;;;;5051444;28;20174;-62
2024/01/12 12:15:16;;;;;;;13.40;7.60;;;0.70;99.90;;;;;;5051866;28;20434;-61
2024/01/12 12:17:44;;;;;;;11.53;8.03;;;0.60;99.90;;;;;;5048492;28;20171;-63
2024/01/12 12:20:11;;;;;;;14.70;8.30;;;0.60;99.90;;;;;;5028754;28;20666;-61
2024/01/12 12:22:49;;;;;;;14.00;7.90;;;0.60;99.90;;;;;;5052261;28;20487;-59
2024/01/12 12:25:16;;;;;;;11.97;8.30;;;0.60;99.90;;;;;;5044995;28;20499;-56
2024/01/12 12:27:43;;;;;;;11.80;7.37;;;0.70;99.90;;;;;;5048730;28;20802;-58
2024/01/12 12:30:11;;;;;;;12.50;7.90;;;0.60;99.90;;;;;;5043787;28;20992;-58
2024/01/12 12:32:41;;;;;;;13.33;8.10;;;0.60;99.90;;;;;;5049552;28;20421;-59
2024/01/12 12:35:13;;;;;;;15.27;8.07;;;0.80;99.90;;;;;;5046438;28;20949;-61
2024/01/12 12:37:42;;;;;;;13.07;7.77;;;0.70;99.90;;;;;;5044157;28;20503;-59